AFL1430 UNNT-UNBB
Flight info
| Callsign | AFL1430 |
|---|---|
| Flight time | 0h 27m |
| Altitude | 23000 |
| Route | ALIRO |
| Aircraft | A320/M-SDE3FGHIRWY/LB1 |
Departure
| Time | 2026-04-26 06:20 |
|---|---|
| Airport | Novosibirsk Tolmachevo Airport (UNNT) |
Arrival
| Time | 2026-04-26 06:47 |
|---|---|
| Airport | Barnaul Gherman Titov International Airport (UNBB) |
| Time | Latitude | Longitude | Altitude | Speed | Heading |
|---|---|---|---|---|---|
| 2026-04-26 06:17 | 55.01068 | 82.66329 | 392 ft | 0 kts | 171° |
| 2026-04-26 06:18 | 55.01064 | 82.66330 | 373 ft | 2 kts | 171° |
| 2026-04-26 06:18 | 55.01032 | 82.66348 | 373 ft | 7 kts | 142° |
| 2026-04-26 06:18 | 55.01038 | 82.66456 | 373 ft | 12 kts | 69° |
| 2026-04-26 06:19 | 55.01077 | 82.66617 | 373 ft | 17 kts | 63° |
| 2026-04-26 06:19 | 55.01195 | 82.66639 | 373 ft | 20 kts | 351° |
| 2026-04-26 06:19 | 55.01350 | 82.66597 | 374 ft | 21 kts | 349° |
| 2026-04-26 06:19 | 55.01370 | 82.66449 | 375 ft | 16 kts | 261° |
| 2026-04-26 06:20 | 55.01333 | 82.66057 | 373 ft | 66 kts | 261° |
| 2026-04-26 06:20 | 55.01224 | 82.64848 | 373 ft | 133 kts | 261° |
| 2026-04-26 06:20 | 55.01025 | 82.63087 | 788 ft | 151 kts | 254° |
| 2026-04-26 06:20 | 55.00852 | 82.61245 | 1542 ft | 155 kts | 255° |
| 2026-04-26 06:21 | 55.00665 | 82.59279 | 2168 ft | 173 kts | 254° |
| 2026-04-26 06:21 | 55.00521 | 82.57853 | 2474 ft | 187 kts | 253° |
| 2026-04-26 06:21 | 55.00291 | 82.55462 | 2915 ft | 215 kts | 259° |
| 2026-04-26 06:21 | 55.00635 | 82.52721 | 3502 ft | 256 kts | 296° |
| 2026-04-26 06:22 | 55.02037 | 82.50592 | 4332 ft | 283 kts | 333° |
| 2026-04-26 06:22 | 55.04017 | 82.50117 | 5337 ft | 296 kts | 7° |
| 2026-04-26 06:22 | 55.05892 | 82.51551 | 6428 ft | 299 kts | 41° |
| 2026-04-26 06:22 | 55.07093 | 82.54449 | 7347 ft | 298 kts | 74° |
| 2026-04-26 06:23 | 55.07262 | 82.57980 | 8271 ft | 292 kts | 107° |
| 2026-04-26 06:23 | 55.06376 | 82.61068 | 9190 ft | 284 kts | 136° |
| 2026-04-26 06:23 | 55.05046 | 82.63631 | 10133 ft | 288 kts | 138° |
| 2026-04-26 06:23 | 55.03629 | 82.66304 | 10500 ft | 312 kts | 138° |
| 2026-04-26 06:24 | 55.02087 | 82.69162 | 10876 ft | 333 kts | 138° |
| 2026-04-26 06:24 | 55.00602 | 82.72359 | 11538 ft | 349 kts | 124° |
| 2026-04-26 06:24 | 54.99713 | 82.76380 | 12301 ft | 361 kts | 111° |
| 2026-04-26 06:24 | 54.98919 | 82.80552 | 13129 ft | 365 kts | 114° |
| 2026-04-26 06:25 | 54.98026 | 82.84716 | 13911 ft | 369 kts | 116° |
| 2026-04-26 06:25 | 54.97072 | 82.88952 | 14632 ft | 373 kts | 116° |
| 2026-04-26 06:25 | 54.96129 | 82.93116 | 15351 ft | 377 kts | 116° |
| 2026-04-26 06:25 | 54.95122 | 82.97397 | 16071 ft | 378 kts | 121° |
| 2026-04-26 06:26 | 54.93651 | 83.01162 | 16770 ft | 375 kts | 137° |
| 2026-04-26 06:26 | 54.91680 | 83.04061 | 17474 ft | 371 kts | 152° |
| 2026-04-26 06:26 | 54.89344 | 83.05905 | 18159 ft | 369 kts | 168° |
| 2026-04-26 06:26 | 54.86821 | 83.06562 | 18755 ft | 367 kts | 183° |
| 2026-04-26 06:27 | 54.84284 | 83.06101 | 19320 ft | 368 kts | 192° |
| 2026-04-26 06:27 | 54.81742 | 83.05369 | 19891 ft | 372 kts | 192° |
| 2026-04-26 06:27 | 54.79170 | 83.04632 | 20440 ft | 377 kts | 192° |
| 2026-04-26 06:27 | 54.76569 | 83.03895 | 20988 ft | 381 kts | 192° |
| 2026-04-26 06:28 | 54.73940 | 83.03153 | 21553 ft | 385 kts | 192° |
| 2026-04-26 06:28 | 54.71281 | 83.02406 | 22086 ft | 389 kts | 192° |
| 2026-04-26 06:28 | 54.68592 | 83.01657 | 22610 ft | 394 kts | 192° |
| 2026-04-26 06:28 | 54.65874 | 83.00900 | 22923 ft | 397 kts | 192° |
| 2026-04-26 06:29 | 54.63135 | 83.00135 | 22984 ft | 405 kts | 192° |
| 2026-04-26 06:29 | 54.60298 | 82.99340 | 22985 ft | 421 kts | 192° |
| 2026-04-26 06:29 | 54.57358 | 82.98515 | 22982 ft | 435 kts | 192° |
| 2026-04-26 06:29 | 54.54324 | 82.97668 | 22982 ft | 448 kts | 192° |
| 2026-04-26 06:30 | 54.51209 | 82.96804 | 22982 ft | 459 kts | 191° |
| 2026-04-26 06:30 | 54.48022 | 82.95926 | 22984 ft | 466 kts | 191° |
| 2026-04-26 06:30 | 54.44831 | 82.95052 | 22984 ft | 464 kts | 191° |
| 2026-04-26 06:30 | 54.41610 | 82.94207 | 22981 ft | 456 kts | 188° |
| 2026-04-26 06:31 | 54.38520 | 82.94136 | 22980 ft | 435 kts | 178° |
| 2026-04-26 06:31 | 54.35603 | 82.95033 | 22983 ft | 420 kts | 167° |
| 2026-04-26 06:31 | 54.32826 | 82.96464 | 22990 ft | 416 kts | 166° |
| 2026-04-26 06:31 | 54.30056 | 82.97890 | 22992 ft | 415 kts | 166° |
| 2026-04-26 06:32 | 54.27293 | 82.99304 | 22987 ft | 414 kts | 166° |
| 2026-04-26 06:32 | 54.24548 | 83.00704 | 22375 ft | 407 kts | 166° |
| 2026-04-26 06:32 | 54.21903 | 83.02056 | 21862 ft | 387 kts | 166° |
| 2026-04-26 06:32 | 54.19387 | 83.03346 | 21387 ft | 370 kts | 166° |
| 2026-04-26 06:33 | 54.16930 | 83.04599 | 20933 ft | 367 kts | 167° |
| 2026-04-26 06:33 | 54.14493 | 83.05837 | 20473 ft | 366 kts | 166° |
| 2026-04-26 06:33 | 54.12004 | 83.07098 | 19989 ft | 378 kts | 166° |
| 2026-04-26 06:33 | 54.09477 | 83.08379 | 19499 ft | 379 kts | 166° |
| 2026-04-26 06:34 | 54.06960 | 83.09655 | 18990 ft | 376 kts | 166° |
| 2026-04-26 06:34 | 54.04463 | 83.10922 | 18498 ft | 373 kts | 166° |
| 2026-04-26 06:34 | 54.01982 | 83.12176 | 17942 ft | 371 kts | 166° |
| 2026-04-26 06:34 | 53.99521 | 83.13420 | 17421 ft | 367 kts | 166° |
| 2026-04-26 06:35 | 53.97086 | 83.14650 | 16897 ft | 363 kts | 166° |
| 2026-04-26 06:35 | 53.94673 | 83.15865 | 16389 ft | 360 kts | 166° |
| 2026-04-26 06:35 | 53.92279 | 83.17071 | 15878 ft | 357 kts | 166° |
| 2026-04-26 06:35 | 53.89873 | 83.18286 | 15362 ft | 355 kts | 166° |
| 2026-04-26 06:36 | 53.87516 | 83.19479 | 14861 ft | 352 kts | 167° |
| 2026-04-26 06:36 | 53.85207 | 83.20649 | 14357 ft | 342 kts | 167° |
| 2026-04-26 06:36 | 53.82942 | 83.21791 | 13867 ft | 337 kts | 167° |
| 2026-04-26 06:36 | 53.80706 | 83.22911 | 13337 ft | 333 kts | 166° |
| 2026-04-26 06:37 | 53.78564 | 83.24414 | 12838 ft | 335 kts | 154° |
| 2026-04-26 06:37 | 53.76662 | 83.26709 | 12312 ft | 338 kts | 142° |
| 2026-04-26 06:37 | 53.75084 | 83.29671 | 11771 ft | 340 kts | 133° |
| 2026-04-26 06:37 | 53.73604 | 83.32765 | 11212 ft | 337 kts | 134° |
| 2026-04-26 06:38 | 53.72126 | 83.35833 | 10647 ft | 334 kts | 134° |
| 2026-04-26 06:38 | 53.70693 | 83.38802 | 10299 ft | 315 kts | 134° |
| 2026-04-26 06:38 | 53.69363 | 83.41561 | 10057 ft | 295 kts | 134° |
| 2026-04-26 06:38 | 53.68087 | 83.44188 | 9884 ft | 286 kts | 135° |
| 2026-04-26 06:39 | 53.66828 | 83.46764 | 9753 ft | 285 kts | 135° |
| 2026-04-26 06:39 | 53.65567 | 83.49337 | 9626 ft | 284 kts | 134° |
| 2026-04-26 06:39 | 53.64308 | 83.51904 | 9479 ft | 284 kts | 135° |
| 2026-04-26 06:39 | 53.63032 | 83.54504 | 8907 ft | 282 kts | 135° |
| 2026-04-26 06:40 | 53.61791 | 83.57041 | 8311 ft | 278 kts | 135° |
| 2026-04-26 06:40 | 53.60570 | 83.59541 | 7713 ft | 275 kts | 134° |
| 2026-04-26 06:40 | 53.59360 | 83.62017 | 7135 ft | 272 kts | 135° |
| 2026-04-26 06:40 | 53.58162 | 83.64462 | 6566 ft | 270 kts | 134° |
| 2026-04-26 06:41 | 53.56972 | 83.66880 | 5972 ft | 267 kts | 134° |
| 2026-04-26 06:41 | 53.55795 | 83.69267 | 5396 ft | 264 kts | 134° |
| 2026-04-26 06:41 | 53.54629 | 83.71635 | 4839 ft | 262 kts | 134° |
| 2026-04-26 06:41 | 53.53510 | 83.73914 | 4662 ft | 240 kts | 135° |
| 2026-04-26 06:42 | 53.52352 | 83.75681 | 4602 ft | 212 kts | 150° |
| 2026-04-26 06:42 | 53.51079 | 83.76809 | 4533 ft | 203 kts | 162° |
| 2026-04-26 06:42 | 53.49772 | 83.77698 | 4461 ft | 202 kts | 162° |
| 2026-04-26 06:42 | 53.48473 | 83.78590 | 4361 ft | 203 kts | 160° |
| 2026-04-26 06:43 | 53.47168 | 83.79490 | 4294 ft | 204 kts | 161° |
| 2026-04-26 06:43 | 53.45875 | 83.80391 | 4190 ft | 200 kts | 161° |
| 2026-04-26 06:43 | 53.44570 | 83.81188 | 4084 ft | 198 kts | 175° |
| 2026-04-26 06:43 | 53.43287 | 83.80737 | 3992 ft | 189 kts | 213° |
| 2026-04-26 06:44 | 53.42511 | 83.78990 | 3604 ft | 195 kts | 245° |
| 2026-04-26 06:44 | 53.41997 | 83.76847 | 3268 ft | 201 kts | 243° |
| 2026-04-26 06:44 | 53.41464 | 83.74703 | 2979 ft | 195 kts | 244° |
| 2026-04-26 06:44 | 53.40954 | 83.72641 | 2769 ft | 189 kts | 244° |
| 2026-04-26 06:45 | 53.40451 | 83.70610 | 2543 ft | 186 kts | 244° |
| 2026-04-26 06:45 | 53.39955 | 83.68602 | 2325 ft | 182 kts | 244° |
| 2026-04-26 06:45 | 53.39479 | 83.66678 | 2080 ft | 174 kts | 245° |
| 2026-04-26 06:45 | 53.39029 | 83.64862 | 1901 ft | 163 kts | 244° |
| 2026-04-26 06:46 | 53.38608 | 83.63161 | 1711 ft | 153 kts | 243° |
| 2026-04-26 06:46 | 53.38208 | 83.61550 | 1516 ft | 146 kts | 244° |
| 2026-04-26 06:46 | 53.37826 | 83.60008 | 1339 ft | 138 kts | 244° |
| 2026-04-26 06:46 | 53.37459 | 83.58529 | 1166 ft | 139 kts | 245° |
| 2026-04-26 06:47 | 53.37086 | 83.57005 | 1006 ft | 142 kts | 242° |
| 2026-04-26 06:47 | 53.36707 | 83.55488 | 847 ft | 139 kts | 245° |
| 2026-04-26 06:47 | 53.36391 | 83.54255 | 832 ft | 77 kts | 247° |
| 2026-04-26 06:47 | 53.36271 | 83.53887 | 832 ft | 15 kts | 182° |
| 2026-04-26 06:48 | 53.36166 | 83.53965 | 828 ft | 18 kts | 131° |
| 2026-04-26 06:48 | 53.36183 | 83.54149 | 830 ft | 19 kts | 66° |
| 2026-04-26 06:48 | 53.36243 | 83.54393 | 831 ft | 27 kts | 69° |
| 2026-04-26 06:48 | 53.36324 | 83.54714 | 826 ft | 33 kts | 68° |
| 2026-04-26 06:49 | 53.36400 | 83.55021 | 840 ft | 17 kts | 67° |
| 2026-04-26 06:49 | 53.36454 | 83.55236 | 840 ft | 23 kts | 67° |
| 2026-04-26 06:49 | 53.36461 | 83.55371 | 837 ft | 11 kts | 146° |
| 2026-04-26 06:49 | 53.36413 | 83.55311 | 838 ft | 9 kts | 240° |
| 2026-04-26 06:50 | 53.36411 | 83.55302 | 838 ft | 0 kts | 245° |